Time;durP1;ratioP1;P1;durP2;ratioP2;P2;SDS_P1;SDS_P2;PMS_P1;PMS_P2;Temp;Humidity;BMP_temperature;BMP_pressure;BME280_temperature;BME280_humidity;BME280_pressure;Samples;Min_cycle;Max_cycle;Signal;HPM_P1;HPM_P2
2024/03/25 00:02:00;;;;;;;11.93;10.87;;;6.30;85.80;;;;;;5072854;28;20185;-91
2024/03/25 00:04:26;;;;;;;11.43;10.50;;;6.30;85.10;;;;;;5073334;28;20169;-90
2024/03/25 00:06:52;;;;;;;11.00;9.90;;;6.30;84.90;;;;;;5073242;28;20260;-90
2024/03/25 00:09:18;;;;;;;11.33;10.43;;;6.30;85.40;;;;;;5076275;28;20161;-90
2024/03/25 00:11:44;;;;;;;12.23;9.30;;;6.30;86.10;;;;;;5075913;28;20223;-91
2024/03/25 00:14:09;;;;;;;12.47;11.17;;;6.30;86.50;;;;;;5075486;28;20192;-90
2024/03/25 00:16:35;;;;;;;17.67;15.90;;;6.30;86.70;;;;;;5058719;28;20253;-89
2024/03/25 00:19:01;;;;;;;19.67;17.93;;;6.30;87.20;;;;;;5076162;28;20173;-92
2024/03/25 00:21:27;;;;;;;19.23;17.27;;;6.30;87.50;;;;;;5073208;28;20183;-91
2024/03/25 00:23:52;;;;;;;18.57;16.67;;;6.30;87.80;;;;;;5074499;28;20185;-91
2024/03/25 00:26:18;;;;;;;20.50;16.83;;;6.30;88.20;;;;;;5072801;28;20722;-90
2024/03/25 00:28:43;;;;;;;18.67;16.83;;;6.30;88.30;;;;;;5056633;28;20177;-90
2024/03/25 00:31:09;;;;;;;19.43;17.33;;;6.30;88.40;;;;;;5076103;28;20169;-89
2024/03/25 00:33:35;;;;;;;19.33;17.60;;;6.30;88.50;;;;;;5076698;28;20193;-91
2024/03/25 00:36:00;;;;;;;20.17;15.93;;;6.20;88.70;;;;;;5076798;28;20185;-89
2024/03/25 00:38:26;;;;;;;19.17;16.27;;;6.30;88.80;;;;;;5061184;28;20212;-89
2024/03/25 00:40:52;;;;;;;18.20;16.27;;;6.30;88.90;;;;;;5076614;28;20164;-88
2024/03/25 00:43:17;;;;;;;20.53;18.43;;;6.20;89.00;;;;;;5075575;28;20200;-89
2024/03/25 00:45:43;;;;;;;19.50;17.73;;;6.30;89.10;;;;;;5076287;28;20180;-90
2024/03/25 00:48:09;;;;;;;17.63;15.77;;;6.30;89.10;;;;;;5077186;28;20184;-89
2024/03/25 00:50:34;;;;;;;18.07;16.07;;;6.30;89.20;;;;;;5077120;28;20164;-88
2024/03/25 00:53:00;;;;;;;17.57;16.00;;;6.30;89.20;;;;;;5076933;28;20196;-87
2024/03/25 00:55:26;;;;;;;18.77;16.07;;;6.30;89.20;;;;;;5060819;28;20161;-90
2024/03/25 00:57:51;;;;;;;18.03;16.30;;;6.30;89.10;;;;;;5076888;28;20229;-89
2024/03/25 01:00:17;;;;;;;18.23;16.47;;;6.30;89.10;;;;;;5058552;28;20201;-90
2024/03/25 01:02:43;;;;;;;20.47;16.43;;;6.30;89.00;;;;;;5072347;28;20390;-90
2024/03/25 01:05:09;;;;;;;12.93;9.77;;;6.40;88.80;;;;;;5056049;28;20157;-90
2024/03/25 01:07:34;;;;;;;12.63;10.03;;;6.30;88.80;;;;;;5074570;28;20209;-90
2024/03/25 01:10:00;;;;;;;14.60;9.20;;;6.30;88.80;;;;;;5055869;28;20181;-91
2024/03/25 01:12:26;;;;;;;25.40;12.93;;;6.30;89.00;;;;;;5073940;28;20201;-90
2024/03/25 01:14:52;;;;;;;11.47;9.63;;;6.30;89.00;;;;;;5073516;28;20196;-91
2024/03/25 01:17:17;;;;;;;15.93;10.50;;;6.30;89.20;;;;;;5061353;28;20173;-90
2024/03/25 01:19:43;;;;;;;13.60;10.03;;;6.30;89.30;;;;;;5069803;28;20275;-90
2024/03/25 01:22:09;;;;;;;12.07;9.77;;;6.30;89.40;;;;;;5069334;28;20208;-91
2024/03/25 01:24:34;;;;;;;18.87;10.20;;;6.30;89.50;;;;;;5067919;28;20177;-90
2024/03/25 01:27:00;;;;;;;13.67;8.77;;;6.30;89.80;;;;;;5051612;28;20199;-90
2024/03/25 01:29:25;;;;;;;15.33;8.67;;;6.30;89.80;;;;;;5051058;28;20180;-91
2024/03/25 01:31:51;;;;;;;17.47;9.00;;;6.40;89.90;;;;;;5067207;28;20212;-90
2024/03/25 01:34:17;;;;;;;15.00;8.87;;;6.30;90.00;;;;;;5049854;28;20204;-90
2024/03/25 01:36:42;;;;;;;13.67;8.03;;;6.30;90.00;;;;;;5066237;28;20188;-89
2024/03/25 01:39:08;;;;;;;16.33;8.93;;;6.40;89.90;;;;;;5068389;28;20184;-91
2024/03/25 01:41:33;;;;;;;14.03;8.60;;;6.30;89.90;;;;;;5074409;28;20189;-90
2024/03/25 01:43:59;;;;;;;17.00;8.97;;;6.30;89.90;;;;;;5072550;28;20231;-90
2024/03/25 01:46:25;;;;;;;10.70;8.50;;;6.30;90.00;;;;;;5069714;28;20176;-90
2024/03/25 01:48:52;;;;;;;13.87;9.20;;;6.40;90.00;;;;;;5051164;28;20173;-89
2024/03/25 01:51:20;;;;;;;10.00;8.97;;;6.30;90.00;;;;;;5051268;28;20196;-89
2024/03/25 01:53:46;;;;;;;16.60;9.50;;;6.30;89.90;;;;;;5068776;28;20208;-90
2024/03/25 01:56:15;;;;;;;16.70;9.73;;;6.30;89.90;;;;;;5071800;28;20161;-90
2024/03/25 01:58:40;;;;;;;12.67;10.30;;;6.30;89.80;;;;;;5054123;28;20200;-90
2024/03/25 02:01:08;;;;;;;16.50;10.00;;;6.30;89.80;;;;;;5051625;28;20169;-90
2024/03/25 02:03:34;;;;;;;18.03;10.13;;;6.30;89.80;;;;;;5069455;28;20184;-91
2024/03/25 02:06:05;;;;;;;15.13;10.50;;;6.30;89.70;;;;;;5070453;28;20185;-91
2024/03/25 02:08:31;;;;;;;16.27;10.53;;;6.30;89.50;;;;;;5054574;28;20179;-90
2024/03/25 02:10:58;;;;;;;20.40;12.33;;;6.30;89.50;;;;;;5054859;28;20255;-91
2024/03/25 02:13:24;;;;;;;19.67;11.90;;;6.20;89.30;;;;;;5068650;28;20216;-90
2024/03/25 02:15:51;;;;;;;25.27;11.83;;;6.20;89.20;;;;;;5069781;28;20199;-89
2024/03/25 02:18:17;;;;;;;15.97;11.67;;;6.10;89.20;;;;;;5071211;28;20181;-89
2024/03/25 02:20:43;;;;;;;15.13;11.93;;;6.10;89.10;;;;;;5069946;28;20238;-89
2024/03/25 02:23:10;;;;;;;14.60;11.33;;;6.10;89.00;;;;;;5066755;28;20193;-89
2024/03/25 02:25:38;;;;;;;16.20;12.10;;;6.10;88.80;;;;;;5069404;28;20172;-89
2024/03/25 02:28:04;;;;;;;14.97;12.10;;;6.20;88.60;;;;;;5063521;28;20230;-91
2024/03/25 02:30:29;;;;;;;17.70;12.07;;;6.20;88.50;;;;;;5065934;28;20180;-90
2024/03/25 02:32:55;;;;;;;19.17;13.20;;;6.30;88.50;;;;;;5065798;28;20216;-90
2024/03/25 02:35:22;;;;;;;13.37;12.07;;;6.20;88.50;;;;;;5069856;28;20192;-89
2024/03/25 02:37:49;;;;;;;11.97;10.80;;;6.10;88.60;;;;;;5074836;28;20260;-90
2024/03/25 02:40:15;;;;;;;10.60;9.60;;;6.00;88.80;;;;;;5057644;28;20172;-90
2024/03/25 02:42:41;;;;;;;19.93;18.47;;;6.00;88.70;;;;;;5073081;28;20202;-89
2024/03/25 02:45:07;;;;;;;20.37;18.97;;;5.90;88.60;;;;;;5072291;28;20200;-91
2024/03/25 02:47:33;;;;;;;21.57;19.93;;;5.80;88.60;;;;;;5074003;28;20299;-91
2024/03/25 02:49:59;;;;;;;20.83;19.17;;;5.70;88.50;;;;;;5073475;28;20164;-91
2024/03/25 02:52:24;;;;;;;19.77;18.23;;;5.70;88.60;;;;;;5073523;28;20220;-91
2024/03/25 02:54:50;;;;;;;19.37;18.07;;;5.60;88.60;;;;;;5072339;28;20187;-90
2024/03/25 02:57:15;;;;;;;19.27;17.77;;;5.60;88.60;;;;;;5071201;28;20188;-91
2024/03/25 02:59:41;;;;;;;20.80;19.00;;;5.60;88.70;;;;;;5071801;28;20183;-90
2024/03/25 03:02:06;;;;;;;19.20;17.60;;;5.60;88.90;;;;;;5071066;28;20224;-90
2024/03/25 03:04:32;;;;;;;18.87;17.37;;;5.70;89.00;;;;;;5072998;28;20240;-90
2024/03/25 03:06:58;;;;;;;19.63;17.80;;;5.60;89.00;;;;;;5053120;28;20177;-91
2024/03/25 03:09:23;;;;;;;20.30;18.80;;;5.60;89.10;;;;;;5071334;28;20188;-90
2024/03/25 03:11:49;;;;;;;20.77;18.90;;;5.60;89.20;;;;;;5056353;28;20219;-90
2024/03/25 03:14:14;;;;;;;20.43;18.57;;;5.60;89.20;;;;;;5056631;28;20236;-91
2024/03/25 03:16:40;;;;;;;19.83;18.30;;;5.60;89.40;;;;;;5072758;28;20195;-90
2024/03/25 03:19:05;;;;;;;19.40;17.43;;;5.60;89.80;;;;;;5067986;28;20279;-91
2024/03/25 03:21:31;;;;;;;20.57;18.50;;;5.70;89.90;;;;;;5072604;28;20191;-89
2024/03/25 03:23:56;;;;;;;20.40;18.40;;;5.70;90.00;;;;;;5066556;28;20161;-89
2024/03/25 03:26:26;;;;;;;19.70;18.00;;;5.80;89.80;;;;;;5053872;28;20215;-91
2024/03/25 03:28:58;;;;;;;20.43;18.93;;;5.70;89.50;;;;;;5072226;28;20196;-89
2024/03/25 03:31:26;;;;;;;13.63;10.73;;;5.70;89.40;;;;;;5073011;28;20165;-91
2024/03/25 03:33:51;;;;;;;10.60;9.80;;;5.70;89.20;;;;;;5074408;28;20216;-89
2024/03/25 03:36:20;;;;;;;11.50;10.30;;;5.70;89.10;;;;;;5073994;28;20199;-90
2024/03/25 03:38:46;;;;;;;11.33;10.07;;;5.60;89.10;;;;;;5058248;28;20221;-88
2024/03/25 03:41:11;;;;;;;11.23;9.97;;;5.70;89.30;;;;;;5074029;28;20184;-90
2024/03/25 03:43:37;;;;;;;12.97;10.70;;;5.70;89.50;;;;;;5074424;28;20169;-89
2024/03/25 03:46:03;;;;;;;14.53;10.57;;;5.70;89.60;;;;;;5073775;28;20181;-89
2024/03/25 03:48:29;;;;;;;13.73;10.17;;;5.70;89.50;;;;;;5074360;28;20169;-88
2024/03/25 03:50:54;;;;;;;10.37;9.37;;;5.70;89.60;;;;;;5074225;28;20177;-88
2024/03/25 03:53:20;;;;;;;9.80;8.90;;;5.70;89.60;;;;;;5056590;28;20223;-88
2024/03/25 03:56:01;;;;;;;11.20;9.67;;;5.70;89.50;;;;;;5057778;28;20196;-89
2024/03/25 03:58:27;;;;;;;10.57;9.27;;;5.70;89.40;;;;;;5073827;28;20168;-89
2024/03/25 04:00:53;;;;;;;11.03;9.50;;;5.70;89.40;;;;;;5057106;28;20233;-90
2024/03/25 04:03:19;;;;;;;9.90;9.10;;;5.60;89.40;;;;;;5073717;28;20187;-89
2024/03/25 04:05:45;;;;;;;10.03;8.93;;;5.70;89.50;;;;;;5074542;28;20165;-88
2024/03/25 04:08:10;;;;;;;12.60;9.77;;;5.40;89.60;;;;;;5074252;28;20200;-89
2024/03/25 04:10:37;;;;;;;10.37;9.30;;;5.40;89.60;;;;;;5061177;28;20220;-89
2024/03/25 04:13:04;;;;;;;12.67;10.27;;;5.30;89.60;;;;;;5077462;28;20205;-89
2024/03/25 04:15:32;;;;;;;10.97;10.00;;;5.30;89.70;;;;;;5076811;28;20215;-89
2024/03/25 04:17:58;;;;;;;10.93;9.90;;;5.30;89.60;;;;;;5074485;28;20204;-89
2024/03/25 04:20:23;;;;;;;11.00;10.10;;;5.30;89.50;;;;;;5075609;28;20172;-89
2024/03/25 04:22:49;;;;;;;11.90;10.70;;;5.40;89.50;;;;;;5077702;28;20208;-89
2024/03/25 04:25:14;;;;;;;10.80;9.90;;;5.40;89.50;;;;;;5061581;28;20153;-90
2024/03/25 04:27:41;;;;;;;10.43;9.37;;;5.40;89.60;;;;;;5077056;28;20181;-89
2024/03/25 04:30:08;;;;;;;10.37;9.37;;;5.40;89.80;;;;;;5077500;28;20211;-90
2024/03/25 04:32:34;;;;;;;10.00;9.17;;;5.40;90.00;;;;;;5073276;28;20280;-90
2024/03/25 04:35:00;;;;;;;10.47;9.47;;;5.40;90.10;;;;;;5066779;28;20660;-91
2024/03/25 04:37:25;;;;;;;10.40;9.50;;;5.40;90.20;;;;;;5056869;28;20205;-89
2024/03/25 04:39:51;;;;;;;9.97;8.97;;;5.30;90.20;;;;;;5044789;28;20197;-90
2024/03/25 04:42:16;;;;;;;9.83;9.13;;;5.30;90.40;;;;;;5059189;28;20214;-90
2024/03/25 04:44:42;;;;;;;10.40;9.40;;;5.30;90.50;;;;;;5059405;28;20176;-90
2024/03/25 04:47:07;;;;;;;10.23;9.30;;;5.30;90.40;;;;;;5061557;28;20183;-90
2024/03/25 04:49:33;;;;;;;10.57;9.77;;;5.20;90.40;;;;;;5059823;28;20211;-90
2024/03/25 04:51:58;;;;;;;12.77;11.60;;;5.20;90.10;;;;;;5045087;28;20215;-90
2024/03/25 04:54:24;;;;;;;12.10;11.13;;;5.20;90.00;;;;;;5065382;28;20181;-91
2024/03/25 04:56:49;;;;;;;11.63;10.83;;;5.20;89.80;;;;;;5063964;28;20203;-90
2024/03/25 04:59:15;;;;;;;12.00;11.10;;;5.10;89.70;;;;;;5063911;28;20188;-92
2024/03/25 05:01:40;;;;;;;11.43;10.60;;;4.90;89.40;;;;;;5063259;28;20375;-90
2024/03/25 05:04:09;;;;;;;12.10;11.10;;;4.80;89.90;;;;;;5061906;28;20183;-90
2024/03/25 05:06:34;;;;;;;19.10;17.60;;;4.80;90.20;;;;;;5063225;28;20181;-90
2024/03/25 05:09:00;;;;;;;18.00;16.83;;;4.80;90.40;;;;;;5063127;28;20187;-90
2024/03/25 05:11:25;;;;;;;17.80;16.70;;;4.80;90.60;;;;;;5062998;28;20216;-90
2024/03/25 05:13:51;;;;;;;15.70;14.10;;;4.80;90.90;;;;;;5062736;28;20212;-90
2024/03/25 05:16:17;;;;;;;13.77;12.87;;;4.80;91.20;;;;;;5064304;28;20683;-90
2024/03/25 05:18:42;;;;;;;12.93;11.57;;;4.80;91.40;;;;;;5064293;28;20181;-90
2024/03/25 05:21:07;;;;;;;12.57;10.37;;;5.00;91.60;;;;;;5048496;28;20202;-89
2024/03/25 05:23:33;;;;;;;11.20;10.20;;;5.00;91.50;;;;;;5065945;28;20181;-91
2024/03/25 05:25:58;;;;;;;12.57;11.47;;;5.10;91.50;;;;;;5067411;28;20181;-90
2024/03/25 05:28:24;;;;;;;13.10;12.10;;;5.10;91.40;;;;;;5067476;28;20196;-90
2024/03/25 05:30:50;;;;;;;12.47;11.27;;;5.10;91.30;;;;;;5067648;28;20208;-90
2024/03/25 05:33:15;;;;;;;14.20;12.00;;;5.10;91.20;;;;;;5070844;28;20208;-90
2024/03/25 05:35:41;;;;;;;10.90;9.90;;;5.10;91.20;;;;;;5069698;28;20182;-90
2024/03/25 05:38:07;;;;;;;13.43;12.33;;;5.10;91.20;;;;;;5071209;28;20203;-90
2024/03/25 05:40:32;;;;;;;12.53;11.60;;;5.20;91.00;;;;;;5067458;28;20180;-91
2024/03/25 05:42:58;;;;;;;13.77;12.47;;;5.20;90.80;;;;;;5067580;28;20211;-91
2024/03/25 05:45:24;;;;;;;13.40;12.43;;;5.20;90.70;;;;;;5064211;28;20180;-90
2024/03/25 05:47:52;;;;;;;13.50;12.40;;;5.30;90.60;;;;;;5063462;28;20181;-91
2024/03/25 05:50:18;;;;;;;16.27;12.30;;;5.20;90.70;;;;;;5046697;28;20240;-90
2024/03/25 05:52:43;;;;;;;11.60;10.80;;;5.20;91.00;;;;;;5049268;28;20220;-90
2024/03/25 05:55:12;;;;;;;12.83;11.53;;;5.20;91.20;;;;;;5067264;28;20184;-90
2024/03/25 05:57:37;;;;;;;13.60;12.20;;;5.20;91.30;;;;;;5066320;28;20211;-90
2024/03/25 06:00:03;;;;;;;13.13;11.80;;;5.20;91.30;;;;;;5064110;28;20173;-90
2024/03/25 06:02:30;;;;;;;12.23;11.03;;;5.10;91.50;;;;;;5062347;28;20705;-90
2024/03/25 06:04:56;;;;;;;14.10;11.13;;;5.20;91.60;;;;;;5066242;28;20188;-91
2024/03/25 06:07:22;;;;;;;12.20;11.07;;;5.20;91.60;;;;;;5063994;28;20196;-91
2024/03/25 06:09:48;;;;;;;10.97;10.07;;;5.10;91.80;;;;;;5048620;28;20183;-91
2024/03/25 06:12:13;;;;;;;12.43;10.43;;;5.20;91.90;;;;;;5060020;28;20622;-91
2024/03/25 06:14:39;;;;;;;18.37;11.13;;;5.20;92.00;;;;;;5057611;28;20180;-89
2024/03/25 06:17:05;;;;;;;13.03;7.87;;;5.20;91.90;;;;;;5056491;28;20188;-92
2024/03/25 06:19:30;;;;;;;12.40;7.40;;;5.20;92.00;;;;;;5037765;28;20169;-89
2024/03/25 06:21:56;;;;;;;10.40;7.17;;;5.20;92.00;;;;;;5034764;28;20239;-89
2024/03/25 06:24:22;;;;;;;10.53;7.43;;;5.20;92.10;;;;;;5051146;28;20558;-88
2024/03/25 06:26:47;;;;;;;12.90;7.27;;;5.10;92.30;;;;;;5052066;28;20189;-91
2024/03/25 06:29:13;;;;;;;15.50;7.40;;;5.20;92.50;;;;;;5036407;28;20291;-88
2024/03/25 06:34:22;;;;;;;15.70;7.57;;;5.20;92.40;;;;;;5035064;28;20164;-90
2024/03/25 06:36:48;;;;;;;13.63;8.00;;;5.20;92.50;;;;;;5051030;28;20168;-89
2024/03/25 06:39:15;;;;;;;14.97;7.97;;;5.20;92.50;;;;;;5050602;28;20203;-90
2024/03/25 06:41:40;;;;;;;11.03;7.80;;;5.30;92.40;;;;;;5052025;28;20245;-88
2024/03/25 06:44:06;;;;;;;13.20;8.60;;;5.30;92.40;;;;;;5052135;28;20176;-89
2024/03/25 06:46:32;;;;;;;11.73;8.30;;;5.30;92.30;;;;;;5052817;28;20240;-89
2024/03/25 06:48:59;;;;;;;14.67;8.70;;;5.40;92.30;;;;;;5053729;28;20334;-90
2024/03/25 06:51:25;;;;;;;18.03;9.07;;;5.40;92.30;;;;;;5053660;28;20271;-90
2024/03/25 06:53:50;;;;;;;15.27;8.77;;;5.40;92.30;;;;;;5052864;28;20203;-88
2024/03/25 06:56:16;;;;;;;11.73;8.30;;;5.50;92.30;;;;;;5036654;28;20173;-89
2024/03/25 06:58:43;;;;;;;16.90;9.40;;;5.50;92.20;;;;;;5055683;28;20177;-91
2024/03/25 07:01:09;;;;;;;10.73;8.80;;;5.50;92.30;;;;;;5055870;28;20172;-90
2024/03/25 07:03:35;;;;;;;15.53;9.17;;;5.50;92.40;;;;;;5052580;28;20177;-90
2024/03/25 07:06:01;;;;;;;15.40;9.27;;;5.50;92.50;;;;;;5036999;28;20176;-89
2024/03/25 07:08:32;;;;;;;16.37;8.60;;;5.60;92.60;;;;;;5054145;28;20314;-90
2024/03/25 07:10:58;;;;;;;13.57;8.90;;;5.60;92.60;;;;;;5053438;28;20146;-91
2024/03/25 07:13:24;;;;;;;14.90;9.03;;;5.70;92.60;;;;;;5059941;28;20226;-86
2024/03/25 07:15:50;;;;;;;14.87;9.27;;;5.50;92.40;;;;;;5035985;28;20175;-88
2024/03/25 07:18:16;;;;;;;14.07;8.70;;;5.70;92.40;;;;;;5049216;28;20177;-87
2024/03/25 07:20:43;;;;;;;10.50;8.17;;;5.80;92.30;;;;;;5049783;28;20172;-90
2024/03/25 07:23:09;;;;;;;14.07;8.77;;;5.80;92.00;;;;;;5049003;28;20199;-90
2024/03/25 07:25:35;;;;;;;14.70;8.23;;;5.70;91.40;;;;;;5050005;28;20181;-89
2024/03/25 07:28:02;;;;;;;17.13;8.50;;;5.80;91.60;;;;;;5043606;28;20172;-90
2024/03/25 07:30:28;;;;;;;19.70;8.17;;;5.90;91.60;;;;;;5063058;28;20177;-88
2024/03/25 07:32:58;;;;;;;10.27;8.13;;;5.90;91.40;;;;;;5054605;28;20218;-88
2024/03/25 07:35:24;;;;;;;21.90;8.07;;;5.80;91.00;;;;;;5052418;28;20177;-88
2024/03/25 07:37:51;;;;;;;13.87;7.73;;;6.00;91.30;;;;;;5037741;28;20547;-89
2024/03/25 07:40:20;;;;;;;14.23;8.67;;;6.10;91.40;;;;;;5036356;28;20550;-91
2024/03/25 07:42:46;;;;;;;9.00;7.80;;;6.20;91.40;;;;;;5052535;28;20287;-88
2024/03/25 07:45:12;;;;;;;21.80;8.60;;;6.30;91.50;;;;;;5054703;28;20184;-89
2024/03/25 07:47:37;;;;;;;18.50;8.57;;;6.30;91.10;;;;;;5054855;28;20177;-90
2024/03/25 07:50:03;;;;;;;16.10;9.50;;;6.30;91.00;;;;;;5039541;28;20187;-89
2024/03/25 07:52:29;;;;;;;21.33;11.17;;;6.30;90.30;;;;;;5058093;28;20322;-90
2024/03/25 07:54:55;;;;;;;19.50;10.37;;;6.20;90.00;;;;;;5054084;28;20658;-90
2024/03/25 07:57:21;;;;;;;16.23;11.10;;;6.20;89.80;;;;;;5053001;28;20704;-90
2024/03/25 07:59:46;;;;;;;16.10;11.43;;;6.30;89.30;;;;;;5053797;28;20173;-90
2024/03/25 08:02:12;;;;;;;17.87;10.67;;;6.30;88.40;;;;;;5038582;28;20196;-90
2024/03/25 08:04:38;;;;;;;14.77;11.10;;;6.30;88.60;;;;;;5055952;28;20172;-90
2024/03/25 08:07:03;;;;;;;15.83;11.30;;;6.20;87.60;;;;;;5054106;28;20203;-89
2024/03/25 08:09:29;;;;;;;16.63;11.33;;;6.30;87.80;;;;;;5038239;28;20181;-92
2024/03/25 08:11:55;;;;;;;19.53;16.20;;;6.40;87.90;;;;;;5056433;28;20204;-90
2024/03/25 08:14:20;;;;;;;18.73;15.33;;;6.40;87.50;;;;;;5057407;28;20173;-90
2024/03/25 08:16:46;;;;;;;26.13;17.17;;;6.40;87.30;;;;;;5055571;28;20192;-90
2024/03/25 08:19:11;;;;;;;16.97;15.40;;;6.50;87.60;;;;;;5061740;28;20660;-90
2024/03/25 08:21:37;;;;;;;19.37;17.10;;;6.70;87.90;;;;;;5044596;28;20223;-89
2024/03/25 08:24:03;;;;;;;18.60;16.40;;;6.70;87.90;;;;;;5058335;28;20184;-88
2024/03/25 08:26:29;;;;;;;21.70;17.30;;;6.90;88.00;;;;;;5038455;28;20181;-89
2024/03/25 08:28:57;;;;;;;28.23;17.93;;;6.90;87.50;;;;;;5062868;28;20563;-92
2024/03/25 08:31:23;;;;;;;24.53;18.43;;;6.90;87.30;;;;;;5057008;28;20172;-92
2024/03/25 08:33:48;;;;;;;23.93;18.77;;;7.10;87.10;;;;;;5058843;28;20212;-92
2024/03/25 08:36:14;;;;;;;20.87;17.93;;;7.00;86.30;;;;;;5072345;28;20235;-89
2024/03/25 08:38:39;;;;;;;20.37;18.23;;;7.10;86.40;;;;;;5068847;28;20169;-90
2024/03/25 08:41:05;;;;;;;23.30;19.47;;;7.30;86.70;;;;;;5070623;28;20187;-90
2024/03/25 08:43:30;;;;;;;20.30;18.43;;;7.20;85.60;;;;;;5068838;28;20360;-89
2024/03/25 08:45:57;;;;;;;21.83;19.63;;;7.30;85.50;;;;;;5065114;28;20173;-90
2024/03/25 08:48:23;;;;;;;26.27;20.57;;;7.30;85.30;;;;;;5058181;28;20177;-90
2024/03/25 08:50:48;;;;;;;23.43;21.40;;;7.20;84.90;;;;;;5058113;28;20263;-91
2024/03/25 08:53:14;;;;;;;24.53;22.00;;;7.00;83.50;;;;;;5053904;28;20680;-92
2024/03/25 08:55:46;;;;;;;22.77;20.27;;;6.90;83.90;;;;;;5055773;28;20200;-92
2024/03/25 08:58:13;;;;;;;21.30;18.83;;;7.00;85.20;;;;;;5113156;22;20315;-92
2024/03/25 09:00:38;;;;;;;20.13;18.23;;;7.00;86.10;;;;;;5051276;28;20161;-90
2024/03/25 09:03:04;;;;;;;20.67;18.83;;;7.10;86.30;;;;;;5037111;28;20295;-90
2024/03/25 09:05:30;;;;;;;22.03;19.77;;;7.00;85.80;;;;;;5035962;28;20181;-90
2024/03/25 09:07:58;;;;;;;28.50;22.33;;;7.00;84.30;;;;;;5049034;28;20168;-92
2024/03/25 09:13:08;;;;;;;25.27;22.87;;;7.00;81.90;;;;;;5044156;28;20296;-88
2024/03/25 09:15:34;;;;;;;22.83;20.50;;;7.10;81.70;;;;;;5052278;28;20177;-91
2024/03/25 09:18:00;;;;;;;24.47;22.33;;;7.20;81.60;;;;;;5060081;28;20220;-90
2024/03/25 09:20:26;;;;;;;25.07;22.77;;;7.20;80.30;;;;;;5055040;28;20184;-91
2024/03/25 09:22:52;;;;;;;24.77;22.10;;;7.30;80.50;;;;;;5046224;28;20216;-91
2024/03/25 09:25:18;;;;;;;23.50;21.10;;;7.40;81.10;;;;;;5038265;28;20181;-89
2024/03/25 09:27:47;;;;;;;25.73;23.07;;;7.70;80.00;;;;;;5047164;28;20173;-91
2024/03/25 09:30:13;;;;;;;21.87;18.90;;;7.80;79.40;;;;;;5055633;28;20275;-90
2024/03/25 09:32:41;;;;;;;16.73;14.40;;;7.90;80.90;;;;;;5038414;28;20204;-92
2024/03/25 09:35:06;;;;;;;25.13;17.03;;;8.10;80.60;;;;;;5036913;28;20176;-91
2024/03/25 09:37:32;;;;;;;17.00;15.43;;;7.80;77.70;;;;;;5040250;28;20183;-89
2024/03/25 09:39:59;;;;;;;20.13;14.77;;;8.20;79.70;;;;;;5038227;28;20220;-90
2024/03/25 09:42:41;;;;;;;17.60;16.00;;;8.60;79.70;;;;;;5056686;28;20208;-89
2024/03/25 09:45:08;;;;;;;21.33;17.27;;;8.30;76.20;;;;;;5056794;28;20153;-90
2024/03/25 09:47:33;;;;;;;20.73;17.47;;;8.30;78.00;;;;;;5057273;28;20153;-90
2024/03/25 09:50:01;;;;;;;18.97;16.97;;;8.10;77.60;;;;;;5058170;28;20188;-89
2024/03/25 09:52:26;;;;;;;19.23;15.67;;;8.10;78.20;;;;;;5053601;28;20189;-90
2024/03/25 09:54:52;;;;;;;20.93;17.97;;;8.00;78.00;;;;;;5040294;28;20195;-91
2024/03/25 09:57:18;;;;;;;18.63;15.97;;;7.60;76.20;;;;;;5041817;28;20184;-92
2024/03/25 09:59:43;;;;;;;18.37;16.43;;;7.70;78.40;;;;;;5035799;28;20238;-93
2024/03/25 10:02:11;;;;;;;24.07;17.43;;;7.60;77.90;;;;;;5035555;28;20616;-91
2024/03/25 10:04:44;;;;;;;19.70;17.60;;;7.70;78.20;;;;;;5035348;28;20191;-90
2024/03/25 10:07:10;;;;;;;18.90;16.37;;;7.90;78.10;;;;;;5036158;28;20255;-91
2024/03/25 10:09:35;;;;;;;17.67;15.60;;;8.50;79.30;;;;;;5036096;28;20227;-92
2024/03/25 10:12:01;;;;;;;17.77;15.80;;;8.80;78.30;;;;;;5037467;28;20208;-90
2024/03/25 10:14:26;;;;;;;18.63;16.27;;;8.90;77.40;;;;;;5035929;28;20278;-92
2024/03/25 10:16:52;;;;;;;19.90;17.27;;;9.00;77.40;;;;;;5036175;28;20176;-92
2024/03/25 10:19:17;;;;;;;19.13;16.97;;;8.70;76.40;;;;;;5038595;28;20279;-93
2024/03/25 10:21:43;;;;;;;19.80;17.27;;;8.70;77.20;;;;;;5035459;28;20621;-91
2024/03/25 10:24:08;;;;;;;18.83;16.90;;;8.50;77.30;;;;;;5034196;28;20175;-90
2024/03/25 10:26:37;;;;;;;18.60;16.87;;;8.10;77.30;;;;;;5035286;28;20173;-90
2024/03/25 10:29:04;;;;;;;19.60;17.37;;;8.10;78.60;;;;;;5034237;28;20173;-92
2024/03/25 10:31:30;;;;;;;19.03;17.10;;;7.90;77.80;;;;;;5033382;28;20207;-94
2024/03/25 10:33:56;;;;;;;19.13;17.23;;;8.00;78.30;;;;;;5032900;28;20672;-91
2024/03/25 10:36:24;;;;;;;22.67;18.83;;;8.10;77.60;;;;;;5032668;28;20187;-91
2024/03/25 10:38:54;;;;;;;18.50;16.97;;;8.30;75.40;;;;;;5033878;28;20227;-91
2024/03/25 10:41:21;;;;;;;20.37;18.23;;;8.80;76.60;;;;;;5032577;28;20548;-90
2024/03/25 10:43:47;;;;;;;20.37;18.37;;;8.70;74.30;;;;;;5032420;28;20185;-91
2024/03/25 10:46:19;;;;;;;20.80;18.60;;;8.60;74.10;;;;;;5032388;28;20181;-90
2024/03/25 10:48:53;;;;;;;21.00;18.97;;;8.50;73.50;;;;;;5032276;28;20184;-92
2024/03/25 10:51:22;;;;;;;20.63;18.77;;;8.30;72.30;;;;;;5032799;28;20226;-91
2024/03/25 10:53:51;;;;;;;21.00;18.30;;;8.30;72.70;;;;;;5033046;28;20209;-90
2024/03/25 10:56:20;;;;;;;20.90;18.67;;;8.50;74.30;;;;;;5032420;28;20177;-91
2024/03/25 10:58:50;;;;;;;19.30;17.80;;;8.60;74.00;;;;;;5032790;28;20196;-91
2024/03/25 11:01:19;;;;;;;23.00;18.73;;;8.70;73.20;;;;;;5032221;28;20180;-88
2024/03/25 11:03:47;;;;;;;21.63;19.60;;;8.50;73.20;;;;;;5032234;28;20187;-90
2024/03/25 11:06:13;;;;;;;20.87;18.83;;;8.30;72.00;;;;;;5032959;28;20204;-90
2024/03/25 11:08:41;;;;;;;20.80;19.00;;;8.70;72.60;;;;;;5032187;28;20260;-92
2024/03/25 11:11:07;;;;;;;21.90;19.70;;;8.60;70.30;;;;;;5032979;28;20230;-89
2024/03/25 11:13:33;;;;;;;21.20;19.40;;;8.50;70.50;;;;;;5033551;28;20684;-91
2024/03/25 11:15:59;;;;;;;21.03;19.00;;;8.30;70.70;;;;;;5033314;28;20177;-91
2024/03/25 11:18:25;;;;;;;21.40;19.50;;;8.60;71.90;;;;;;5032820;28;20180;-91
2024/03/25 11:21:05;;;;;;;21.73;19.80;;;8.80;71.70;;;;;;5036584;28;20181;-91
2024/03/25 11:23:44;;;;;;;22.43;20.43;;;8.90;69.80;;;;;;5037148;28;20287;-91
2024/03/25 11:26:25;;;;;;;23.10;19.93;;;8.80;69.30;;;;;;5036018;28;20219;-92
2024/03/25 11:28:52;;;;;;;21.73;19.70;;;8.80;71.10;;;;;;5036140;28;20294;-91
2024/03/25 11:31:20;;;;;;;21.60;19.30;;;9.10;72.40;;;;;;5035948;28;20656;-90
2024/03/25 11:33:47;;;;;;;22.20;19.77;;;9.00;69.90;;;;;;5035659;28;20207;-93
2024/03/25 11:36:12;;;;;;;21.67;19.83;;;9.00;71.60;;;;;;5037271;28;20199;-91
2024/03/25 11:38:41;;;;;;;21.07;19.23;;;8.90;72.10;;;;;;5036280;28;20648;-92
2024/03/25 11:41:07;;;;;;;32.07;28.87;;;8.90;73.80;;;;;;5036073;28;20188;-91
2024/03/25 11:43:33;;;;;;;30.70;28.00;;;9.00;73.80;;;;;;5036247;28;20181;-92
2024/03/25 11:45:59;;;;;;;29.73;27.10;;;8.90;74.60;;;;;;5035902;28;20628;-90
2024/03/25 11:48:25;;;;;;;30.63;27.47;;;9.10;74.20;;;;;;5035852;28;20181;-91
2024/03/25 11:50:50;;;;;;;30.87;27.93;;;8.90;73.60;;;;;;5037227;28;20711;-91
2024/03/25 11:53:16;;;;;;;31.57;28.47;;;8.90;73.60;;;;;;5036898;28;20203;-92
2024/03/25 11:55:46;;;;;;;31.43;28.83;;;9.30;73.60;;;;;;5035419;28;20666;-89
2024/03/25 11:58:12;;;;;;;30.10;27.30;;;9.30;71.90;;;;;;5035498;28;20193;-91
2024/03/25 12:00:45;;;;;;;29.17;26.97;;;9.80;71.00;;;;;;5035663;28;20187;-92
2024/03/25 12:03:14;;;;;;;33.23;29.77;;;9.80;69.60;;;;;;5037898;28;20197;-91
2024/03/25 12:05:41;;;;;;;27.97;25.37;;;9.80;69.10;;;;;;5037108;28;20268;-92
2024/03/25 12:08:09;;;;;;;29.30;25.97;;;9.70;74.70;;;;;;5050190;28;20176;-93
2024/03/25 12:13:20;;;;;;;26.20;23.50;;;9.90;75.50;;;;;;5048800;28;20584;-91
2024/03/25 12:15:47;;;;;;;25.43;23.60;;;10.00;76.10;;;;;;5050908;28;20267;-92
2024/03/25 12:18:13;;;;;;;26.73;24.60;;;10.20;76.20;;;;;;5060944;28;20165;-93
2024/03/25 12:20:39;;;;;;;28.67;26.57;;;10.20;75.70;;;;;;5061308;28;20146;-92
2024/03/25 12:23:04;;;;;;;31.33;28.70;;;9.90;73.50;;;;;;5059138;28;20665;-92
2024/03/25 12:25:31;;;;;;;32.03;29.07;;;10.30;70.90;;;;;;5059824;28;20172;-93
2024/03/25 12:27:57;;;;;;;32.07;29.57;;;10.50;71.40;;;;;;5059888;28;20168;-93
2024/03/25 12:30:22;;;;;;;30.83;28.53;;;10.90;71.30;;;;;;5060197;28;20169;-91
2024/03/25 12:32:50;;;;;;;32.93;30.20;;;11.30;70.30;;;;;;5060213;28;20228;-92
2024/03/25 12:35:17;;;;;;;34.23;31.43;;;10.90;68.70;;;;;;5060781;28;20164;-92
2024/03/25 12:37:45;;;;;;;33.57;30.87;;;11.20;67.70;;;;;;5059605;28;20173;-93
2024/03/25 12:40:12;;;;;;;35.00;32.37;;;11.50;66.60;;;;;;5060796;28;20157;-93
2024/03/25 12:42:40;;;;;;;21.80;19.80;;;11.70;67.60;;;;;;5055546;28;20208;-94